Shelby, Virginia
Current Conditions -  °F | °C
As of 11:15 AM on Monday 22 Dec 2014 (Local Time) from KOMH Reporting Station
Unknown Precip Unknown Precip  
Wind Chill: 29°   Ceiling: 3100
Heat Index: 34°   Visibility: 1.5mi
Dew Point: 32°   Wind: 6mph
Humidity: 93%   Direction: 340°NNW
Pressure: 30.27"   Gusts: NA
Location:  38.4007°N, 78.3336°W
Report Text: KOMH 221615Z AUTO 34005KT 1 1/2SM UP SCT005 OVC031 01/00 A3027 RMK AO2
Loading
Personal Weather Stations






























Interactive Weather Map New forecast layout! Learn more

10-Day Weather Forecast

Advertisements
Track Severe Weather on mobile